createdAt,value
2018-07-17T00:00:27.102Z,3.23
2018-07-17T00:02:55.635Z,3.30
2018-07-17T00:05:24.842Z,2.80
2018-07-17T00:07:53.329Z,3.70
2018-07-17T00:10:21.843Z,3.97
2018-07-17T00:12:50.395Z,5.70
2018-07-17T00:15:18.809Z,5.93
2018-07-17T00:17:47.396Z,6.27
2018-07-17T00:20:15.853Z,7.87
2018-07-17T00:22:44.973Z,7.57
2018-07-17T00:25:13.513Z,7.47
2018-07-17T00:27:42.035Z,8.17
2018-07-17T00:30:10.525Z,7.93
2018-07-17T00:32:39.005Z,7.07
2018-07-17T00:35:07.226Z,6.47
2018-07-17T00:37:35.682Z,6.13
2018-07-17T00:40:04.313Z,6.00
2018-07-17T00:42:32.945Z,6.00
2018-07-17T00:45:01.802Z,6.07
2018-07-17T00:47:30.007Z,6.17
2018-07-17T00:49:58.495Z,7.27
2018-07-17T00:52:27.006Z,7.23
2018-07-17T00:54:55.561Z,7.90
2018-07-17T00:57:24.079Z,8.20
2018-07-17T00:59:52.741Z,8.73
2018-07-17T01:02:26.872Z,10.70
2018-07-17T01:05:00.624Z,11.40
2018-07-17T01:07:34.349Z,12.57
2018-07-17T01:10:08.503Z,13.27
2018-07-17T01:12:36.232Z,12.93
2018-07-17T01:15:07.759Z,13.33
2018-07-17T01:17:37.025Z,11.90
2018-07-17T01:20:05.515Z,13.27
2018-07-17T01:22:34.134Z,12.30
2018-07-17T01:25:02.631Z,12.23
2018-07-17T01:27:31.118Z,11.93
2018-07-17T01:29:59.732Z,12.97
2018-07-17T01:32:28.235Z,12.33
2018-07-17T01:34:56.788Z,10.93
2018-07-17T01:37:25.264Z,11.57
2018-07-17T01:39:53.811Z,11.67
2018-07-17T01:42:22.321Z,12.17
2018-07-17T01:44:51.045Z,12.07
2018-07-17T01:47:19.597Z,11.50
2018-07-17T01:49:48.087Z,11.40
2018-07-17T01:52:16.745Z,11.57
2018-07-17T01:54:45.346Z,10.50
2018-07-17T01:57:14.151Z,10.27
2018-07-17T01:59:42.679Z,9.20
2018-07-17T02:02:11.365Z,8.87
2018-07-17T02:04:39.882Z,8.00
2018-07-17T02:07:08.464Z,7.27
2018-07-17T02:09:36.948Z,7.30
2018-07-17T02:12:05.482Z,6.07
2018-07-17T02:14:34.006Z,4.97
2018-07-17T02:17:02.567Z,4.60
2018-07-17T02:19:31.054Z,4.70
2018-07-17T02:21:59.503Z,3.80
2018-07-17T02:24:29.177Z,3.93
2018-07-17T02:26:57.674Z,3.63
2018-07-17T02:29:26.224Z,3.90
2018-07-17T02:31:54.818Z,4.10
2018-07-17T02:34:23.498Z,3.87
2018-07-17T02:36:51.955Z,3.63
2018-07-17T02:39:20.522Z,4.03
2018-07-17T02:41:49.030Z,4.00
2018-07-17T02:44:17.497Z,3.87
2018-07-17T02:46:46.146Z,3.77
2018-07-17T02:49:14.693Z,3.60
2018-07-17T02:51:43.189Z,3.50
2018-07-17T02:54:11.915Z,3.20
2018-07-17T02:56:40.397Z,3.53
2018-07-17T02:59:08.826Z,3.20
2018-07-17T03:01:37.279Z,3.50
2018-07-17T03:04:05.468Z,3.13
2018-07-17T03:06:33.908Z,3.30
2018-07-17T03:09:02.379Z,2.97
2018-07-17T03:11:31.011Z,2.83
2018-07-17T03:13:59.730Z,3.57
2018-07-17T03:16:28.209Z,3.60
2018-07-17T03:18:56.710Z,3.70
2018-07-17T03:21:25.253Z,3.30
2018-07-17T03:23:53.742Z,4.00
2018-07-17T03:26:22.174Z,4.30
2018-07-17T03:28:50.316Z,4.20
2018-07-17T03:31:18.911Z,4.40
2018-07-17T03:33:47.561Z,4.30
2018-07-17T03:36:16.042Z,3.70
2018-07-17T03:38:45.394Z,3.40
2018-07-17T03:41:13.893Z,3.00
2018-07-17T03:43:42.401Z,3.60
2018-07-17T03:46:10.955Z,3.67
2018-07-17T03:48:39.652Z,3.20
2018-07-17T03:51:08.153Z,3.23
2018-07-17T03:53:36.643Z,3.20
2018-07-17T03:56:05.159Z,3.57
2018-07-17T03:58:33.605Z,3.63
2018-07-17T04:01:02.292Z,3.90
2018-07-17T04:03:30.917Z,3.43
2018-07-17T04:05:59.381Z,3.60
2018-07-17T04:08:27.864Z,3.27
2018-07-17T04:10:56.530Z,3.40
2018-07-17T04:13:25.072Z,2.97
2018-07-17T04:15:53.160Z,3.80
2018-07-17T04:18:21.729Z,4.00
2018-07-17T04:20:50.372Z,3.50
2018-07-17T04:23:19.053Z,3.77
2018-07-17T04:25:47.679Z,3.40
2018-07-17T04:28:16.207Z,3.90
2018-07-17T04:30:44.805Z,4.03
2018-07-17T04:33:13.495Z,3.83
2018-07-17T04:35:42.997Z,3.70
2018-07-17T04:38:11.568Z,3.77
2018-07-17T04:40:40.140Z,4.47
2018-07-17T04:43:08.818Z,4.30
2018-07-17T04:45:37.326Z,4.27
2018-07-17T04:48:06.140Z,4.37
2018-07-17T04:50:34.703Z,4.03
2018-07-17T04:53:03.171Z,4.20
2018-07-17T04:55:31.685Z,4.03
2018-07-17T04:58:00.178Z,4.87
2018-07-17T05:00:28.617Z,5.30
2018-07-17T05:02:57.081Z,4.90
2018-07-17T05:05:25.328Z,4.83
2018-07-17T05:07:53.790Z,4.57
2018-07-17T05:10:22.405Z,5.00
2018-07-17T05:12:51.030Z,5.17
2018-07-17T05:15:19.488Z,5.70
2018-07-17T05:17:48.871Z,6.20
2018-07-17T05:20:17.402Z,6.43
2018-07-17T05:22:45.873Z,7.27
2018-07-17T05:25:14.096Z,7.37
2018-07-17T05:27:43.221Z,7.67
2018-07-17T05:30:11.766Z,8.20
2018-07-17T05:32:40.240Z,8.50
2018-07-17T05:35:08.767Z,9.13
2018-07-17T05:37:37.279Z,10.50
2018-07-17T05:40:06.037Z,9.40
2018-07-17T05:42:34.510Z,8.77
2018-07-17T05:45:02.993Z,10.23
2018-07-17T05:47:31.552Z,8.43
2018-07-17T05:50:00.020Z,9.90
2018-07-17T05:52:28.808Z,9.07
2018-07-17T05:54:57.549Z,10.47
2018-07-17T05:57:26.059Z,9.33
2018-07-17T05:59:54.548Z,9.03
2018-07-17T06:02:23.201Z,9.60
2018-07-17T06:04:51.709Z,9.67
2018-07-17T06:07:20.167Z,8.73
2018-07-17T06:09:48.706Z,8.23
2018-07-17T06:12:16.937Z,7.27
2018-07-17T06:14:45.122Z,7.57
2018-07-17T06:17:13.455Z,7.07
2018-07-17T06:19:41.907Z,6.33
2018-07-17T06:22:10.154Z,6.30
2018-07-17T06:24:38.642Z,6.17
2018-07-17T06:27:08.473Z,6.67
2018-07-17T06:29:37.046Z,5.17
2018-07-17T06:32:05.816Z,6.17
2018-07-17T06:34:34.033Z,5.80
2018-07-17T06:37:02.648Z,5.60
2018-07-17T06:39:31.199Z,5.60
2018-07-17T06:41:59.720Z,5.53
2018-07-17T06:44:28.358Z,6.03
2018-07-17T06:46:57.078Z,4.87
2018-07-17T06:49:29.695Z,5.00
2018-07-17T06:51:57.884Z,5.27
2018-07-17T06:54:26.627Z,4.47
2018-07-17T06:56:55.215Z,4.30
2018-07-17T06:59:23.821Z,3.87
2018-07-17T07:01:52.136Z,4.90
2018-07-17T07:04:21.200Z,5.23
2018-07-17T07:06:49.673Z,4.60
2018-07-17T07:09:18.343Z,4.57
2018-07-17T07:11:46.893Z,4.57
2018-07-17T07:14:15.440Z,4.77
2018-07-17T07:16:43.959Z,4.73
2018-07-17T07:19:12.746Z,5.17
2018-07-17T07:21:41.250Z,4.90
2018-07-17T07:24:09.744Z,4.63
2018-07-17T07:26:37.958Z,4.30
2018-07-17T07:29:06.562Z,4.43
2018-07-17T07:31:35.076Z,5.10
2018-07-17T07:34:03.593Z,4.47
2018-07-17T07:36:33.005Z,4.73
2018-07-17T07:39:01.563Z,5.30
2018-07-17T07:41:30.063Z,4.70
2018-07-17T07:43:58.599Z,4.43
2018-07-17T07:46:27.330Z,4.50
2018-07-17T07:48:57.497Z,4.90
2018-07-17T07:51:26.389Z,4.13
2018-07-17T07:53:56.922Z,3.90
2018-07-17T07:56:26.332Z,3.80
2018-07-17T07:59:00.309Z,4.10
2018-07-17T08:01:36.900Z,3.40
2018-07-17T08:04:05.446Z,3.03
2018-07-17T08:06:34.072Z,3.33
2018-07-17T08:09:02.902Z,2.90
2018-07-17T08:11:31.389Z,3.00
2018-07-17T08:14:00.182Z,2.97
2018-07-17T08:16:29.113Z,3.17
2018-07-17T08:18:57.368Z,3.27
2018-07-17T08:21:25.844Z,3.23
2018-07-17T08:23:54.334Z,3.13
2018-07-17T08:26:22.994Z,3.07
2018-07-17T08:28:51.478Z,3.20
2018-07-17T08:31:20.012Z,2.80
2018-07-17T08:33:48.995Z,3.00
2018-07-17T08:36:17.494Z,3.13
2018-07-17T08:38:45.996Z,3.00
2018-07-17T08:41:14.670Z,3.03
2018-07-17T08:43:43.242Z,2.60
2018-07-17T08:46:11.804Z,2.50
2018-07-17T08:48:40.357Z,2.70
2018-07-17T08:51:13.590Z,2.90
2018-07-17T08:53:42.278Z,2.60
2018-07-17T08:56:10.957Z,3.00
2018-07-17T08:58:39.496Z,2.67
2018-07-17T09:01:08.497Z,2.87
2018-07-17T09:03:37.150Z,2.77
2018-07-17T09:06:05.919Z,2.53
2018-07-17T09:08:34.683Z,2.33
2018-07-17T09:11:03.320Z,2.00
2018-07-17T09:13:31.846Z,2.30
2018-07-17T09:16:00.569Z,2.00
2018-07-17T09:18:29.105Z,1.93
2018-07-17T09:20:57.733Z,2.30
2018-07-17T09:23:26.441Z,2.03
2018-07-17T09:25:55.096Z,1.90
2018-07-17T09:28:23.720Z,2.37
2018-07-17T09:30:57.636Z,2.23
2018-07-17T09:33:26.138Z,2.60
2018-07-17T09:35:55.679Z,2.50
2018-07-17T09:38:24.710Z,2.23
2018-07-17T09:40:53.211Z,2.50
2018-07-17T09:43:21.606Z,2.20
2018-07-17T09:45:50.784Z,2.50
2018-07-17T09:48:19.322Z,2.00
2018-07-17T09:50:47.974Z,2.27
2018-07-17T09:53:16.438Z,2.70
2018-07-17T09:55:45.022Z,2.57
2018-07-17T09:58:13.638Z,2.63
2018-07-17T10:00:47.468Z,2.40
2018-07-17T10:03:16.609Z,2.20
2018-07-17T10:05:45.243Z,2.73
2018-07-17T10:08:13.850Z,2.40
2018-07-17T10:10:42.064Z,2.80
2018-07-17T10:13:10.657Z,2.97
2018-07-17T10:15:40.757Z,3.20
2018-07-17T10:18:09.329Z,3.30
2018-07-17T10:20:37.802Z,2.77
2018-07-17T10:23:06.313Z,2.90
2018-07-17T10:25:35.861Z,2.80
2018-07-17T10:28:04.384Z,3.00
2018-07-17T10:30:33.178Z,3.10
2018-07-17T10:33:01.686Z,2.67
2018-07-17T10:35:30.260Z,3.00
2018-07-17T10:37:58.996Z,3.40
2018-07-17T10:40:27.699Z,2.90
2018-07-17T10:42:57.016Z,3.00
2018-07-17T10:45:26.239Z,2.70
2018-07-17T10:47:54.797Z,2.93
2018-07-17T10:50:23.429Z,3.07
2018-07-17T10:52:51.926Z,2.90
2018-07-17T10:55:20.435Z,2.67
2018-07-17T10:57:49.058Z,2.53
2018-07-17T11:00:17.643Z,2.70
2018-07-17T11:02:46.140Z,2.40
2018-07-17T11:05:14.700Z,2.67
2018-07-17T11:07:43.257Z,2.80
2018-07-17T11:10:11.791Z,3.00
2018-07-17T11:12:40.333Z,2.47
2018-07-17T11:15:08.811Z,2.90
2018-07-17T11:17:37.291Z,3.20
2018-07-17T11:20:05.791Z,2.80
2018-07-17T11:22:34.331Z,2.90
2018-07-17T11:25:02.830Z,2.80
2018-07-17T11:27:31.307Z,2.87
2018-07-17T11:29:59.818Z,2.93
2018-07-17T11:32:28.680Z,2.60
2018-07-17T11:34:57.133Z,3.13
2018-07-17T11:37:25.722Z,2.83
2018-07-17T11:39:54.195Z,2.70
2018-07-17T11:42:22.842Z,2.70
2018-07-17T11:44:51.410Z,2.40
2018-07-17T11:47:19.735Z,2.53
2018-07-17T11:49:48.378Z,2.50
2018-07-17T11:52:16.973Z,2.30
2018-07-17T11:54:45.532Z,2.67
2018-07-17T11:57:14.090Z,1.80
2018-07-17T11:59:43.237Z,1.70
2018-07-17T12:02:11.818Z,1.80
2018-07-17T12:04:40.757Z,1.87
2018-07-17T12:07:09.337Z,2.40
2018-07-17T12:09:37.973Z,1.90
2018-07-17T12:12:06.857Z,1.77
2018-07-17T12:14:35.495Z,1.60
2018-07-17T12:17:03.971Z,1.80
2018-07-17T12:19:32.436Z,1.70
2018-07-17T12:22:00.897Z,2.00
2018-07-17T12:24:29.395Z,2.13
2018-07-17T12:26:57.847Z,1.80
2018-07-17T12:29:26.485Z,2.23
2018-07-17T12:31:55.061Z,2.00
2018-07-17T12:34:23.602Z,2.00
2018-07-17T12:36:52.147Z,1.90
2018-07-17T12:39:21.219Z,1.70
2018-07-17T12:41:49.673Z,1.70
2018-07-17T12:44:18.254Z,1.80
2018-07-17T12:46:46.700Z,2.10
2018-07-17T12:49:15.160Z,2.50
2018-07-17T12:51:43.357Z,1.90
2018-07-17T12:54:11.834Z,2.00
2018-07-17T12:56:40.452Z,2.23
2018-07-17T12:59:08.960Z,2.40
2018-07-17T13:01:37.490Z,1.93
2018-07-17T13:04:06.095Z,2.00
2018-07-17T13:06:34.690Z,2.13
2018-07-17T13:09:03.255Z,2.30
2018-07-17T13:11:31.833Z,2.00
2018-07-17T13:14:00.322Z,2.27
2018-07-17T13:16:30.417Z,2.00
2018-07-17T13:19:00.305Z,2.20
2018-07-17T13:21:28.990Z,2.00
2018-07-17T13:23:57.731Z,2.00
2018-07-17T13:26:26.472Z,1.80
2018-07-17T13:28:55.207Z,1.90
2018-07-17T13:31:23.825Z,2.23
2018-07-17T13:33:52.572Z,2.10
2018-07-17T13:36:21.220Z,2.30
2018-07-17T13:38:49.833Z,2.30
2018-07-17T13:41:24.899Z,1.67
2018-07-17T13:43:53.605Z,1.70
2018-07-17T13:46:22.151Z,1.80
2018-07-17T13:48:50.554Z,2.00
2018-07-17T13:51:19.179Z,1.70
2018-07-17T13:53:47.810Z,1.93
2018-07-17T13:56:17.109Z,1.70
2018-07-17T13:58:45.521Z,2.03
2018-07-17T14:01:14.270Z,1.87
2018-07-17T14:03:44.549Z,1.73
2018-07-17T14:06:13.172Z,1.60
2018-07-17T14:08:42.722Z,1.73
2018-07-17T14:11:11.911Z,1.97
2018-07-17T14:13:40.562Z,2.13
2018-07-17T14:16:09.078Z,2.00
2018-07-17T14:18:38.000Z,1.80
2018-07-17T14:21:07.703Z,1.47
2018-07-17T14:23:36.368Z,1.80
2018-07-17T14:26:05.248Z,1.47
2018-07-17T14:28:33.822Z,1.77
2018-07-17T14:31:02.568Z,1.80
2018-07-17T14:33:31.280Z,2.03
2018-07-17T14:35:59.869Z,1.87
2018-07-17T14:38:28.860Z,2.30
2018-07-17T14:40:58.333Z,2.57
2018-07-17T14:43:27.410Z,2.60
2018-07-17T14:45:56.212Z,2.50
2018-07-17T14:48:25.058Z,2.20
2018-07-17T14:50:53.825Z,2.43
2018-07-17T14:53:22.820Z,2.60
2018-07-17T14:55:51.330Z,2.30
2018-07-17T14:58:20.745Z,2.23
2018-07-17T15:00:49.653Z,2.70
2018-07-17T15:03:18.595Z,2.83
2018-07-17T15:05:47.285Z,2.70
2018-07-17T15:08:15.888Z,2.80
2018-07-17T15:10:44.448Z,2.40
2018-07-17T15:13:13.297Z,2.60
2018-07-17T15:15:41.811Z,3.47
2018-07-17T15:18:10.649Z,3.33
2018-07-17T15:20:39.182Z,3.23
2018-07-17T15:23:07.773Z,3.30
2018-07-17T15:25:36.881Z,3.50
2018-07-17T15:28:05.559Z,3.90
2018-07-17T15:30:34.146Z,3.33
2018-07-17T15:33:02.858Z,3.37
2018-07-17T15:35:32.136Z,3.40
2018-07-17T15:38:00.817Z,3.43
2018-07-17T15:40:30.552Z,3.50
2018-07-17T15:42:59.170Z,3.43
2018-07-17T15:45:27.446Z,3.40
2018-07-17T15:47:56.108Z,3.13
2018-07-17T15:50:24.917Z,3.70
2018-07-17T15:52:53.165Z,2.90
2018-07-17T15:55:21.784Z,3.57
2018-07-17T15:57:50.322Z,3.17
2018-07-17T16:00:19.108Z,2.93
2018-07-17T16:02:47.759Z,2.90
2018-07-17T16:05:16.884Z,3.17
2018-07-17T16:07:45.493Z,2.53
2018-07-17T16:10:14.143Z,2.90
2018-07-17T16:12:42.881Z,2.80
2018-07-17T16:15:11.705Z,3.07
2018-07-17T16:17:40.414Z,2.80
2018-07-17T16:20:09.164Z,3.00
2018-07-17T16:22:37.978Z,2.80
2018-07-17T16:25:07.228Z,2.90
2018-07-17T16:27:36.031Z,3.20
2018-07-17T16:30:06.300Z,2.70
2018-07-17T16:32:34.532Z,2.63
2018-07-17T16:35:03.825Z,2.67
2018-07-17T16:37:33.712Z,2.87
2018-07-17T16:40:02.237Z,3.27
2018-07-17T16:42:31.409Z,2.97
2018-07-17T16:44:59.973Z,2.77
2018-07-17T16:47:28.909Z,2.47
2018-07-17T16:49:57.850Z,2.67
2018-07-17T16:52:26.073Z,2.23
2018-07-17T16:54:54.676Z,2.73
2018-07-17T16:57:23.298Z,2.60
2018-07-17T16:59:51.946Z,2.47
2018-07-17T17:02:20.782Z,2.40
2018-07-17T17:04:49.480Z,2.47
2018-07-17T17:07:18.075Z,2.73
2018-07-17T17:09:46.626Z,2.33
2018-07-17T17:12:15.208Z,2.73
2018-07-17T17:14:43.818Z,2.63
2018-07-17T17:17:12.468Z,2.53
2018-07-17T17:19:41.124Z,2.50
2018-07-17T17:22:10.399Z,2.50
2018-07-17T17:24:39.210Z,2.10
2018-07-17T17:27:07.794Z,2.27
2018-07-17T17:29:36.319Z,2.27
2018-07-17T17:32:05.044Z,2.23
2018-07-17T17:34:33.695Z,2.10
2018-07-17T17:37:02.664Z,2.00
2018-07-17T17:39:35.634Z,2.20
2018-07-17T17:42:04.171Z,2.30
2018-07-17T17:44:32.991Z,2.00
2018-07-17T17:47:05.746Z,2.40
2018-07-17T17:49:35.062Z,2.50
2018-07-17T17:52:03.650Z,2.30
2018-07-17T17:54:32.236Z,2.37
2018-07-17T17:57:00.782Z,2.47
2018-07-17T17:59:29.539Z,2.17
2018-07-17T18:01:58.376Z,2.30
2018-07-17T18:04:27.034Z,2.20
2018-07-17T18:06:55.637Z,2.20
2018-07-17T18:09:24.440Z,2.10
2018-07-17T18:11:53.119Z,2.27
2018-07-17T18:14:22.277Z,2.27
2018-07-17T18:16:51.130Z,2.10
2018-07-17T18:19:19.696Z,2.13
2018-07-17T18:21:48.332Z,1.90
2018-07-17T18:24:16.951Z,1.97
2018-07-17T18:26:45.624Z,1.70
2018-07-17T18:29:14.221Z,1.83
2018-07-17T18:31:42.517Z,2.10
2018-07-17T18:34:11.963Z,1.83
2018-07-17T18:36:40.500Z,1.67
2018-07-17T18:39:09.399Z,1.70
2018-07-17T18:41:38.096Z,1.97
2018-07-17T18:44:06.543Z,1.90
2018-07-17T18:46:35.082Z,1.67
2018-07-17T18:49:03.798Z,2.30
2018-07-17T18:51:32.496Z,2.00
2018-07-17T18:54:01.008Z,1.60
2018-07-17T18:56:29.591Z,1.97
2018-07-17T18:58:58.464Z,1.93
2018-07-17T19:01:27.043Z,2.37
2018-07-17T19:03:55.534Z,1.90
2018-07-17T19:06:24.203Z,1.90
2018-07-17T19:08:52.833Z,2.00
2018-07-17T19:11:21.450Z,2.17
2018-07-17T19:13:49.893Z,1.90
2018-07-17T19:16:18.495Z,1.90
2018-07-17T19:18:47.051Z,2.17
2018-07-17T19:21:15.596Z,2.17
2018-07-17T19:23:44.212Z,2.30
2018-07-17T19:26:12.714Z,2.20
2018-07-17T19:28:41.316Z,2.10
2018-07-17T19:31:09.860Z,2.47
2018-07-17T19:33:38.444Z,2.07
2018-07-17T19:36:07.912Z,2.30
2018-07-17T19:38:36.478Z,2.17
2018-07-17T19:41:05.163Z,1.83
2018-07-17T19:43:34.005Z,1.93
2018-07-17T19:46:02.591Z,2.00
2018-07-17T19:48:31.269Z,2.10
2018-07-17T19:50:59.899Z,2.00
2018-07-17T19:53:28.382Z,2.13
2018-07-17T19:55:56.967Z,2.20
2018-07-17T19:58:28.758Z,2.00
2018-07-17T20:00:57.303Z,1.97
2018-07-17T20:03:25.964Z,1.80
2018-07-17T20:05:56.277Z,1.90
2018-07-17T20:08:25.047Z,2.23
2018-07-17T20:10:53.630Z,2.13
2018-07-17T20:13:22.173Z,2.50
2018-07-17T20:15:50.715Z,2.27
2018-07-17T20:18:19.268Z,2.23
2018-07-17T20:20:47.837Z,2.40
2018-07-17T20:23:16.489Z,2.07
2018-07-17T20:25:45.046Z,2.43
2018-07-17T20:28:13.489Z,2.30
2018-07-17T20:30:42.029Z,2.50
2018-07-17T20:33:10.657Z,2.37
2018-07-17T20:35:39.573Z,2.40
2018-07-17T20:38:08.090Z,2.07
2018-07-17T20:40:36.669Z,2.50
2018-07-17T20:43:05.451Z,2.73
2018-07-17T20:45:33.937Z,2.33
2018-07-17T20:48:02.386Z,2.60
2018-07-17T20:50:31.471Z,2.20
2018-07-17T20:53:00.504Z,2.00
2018-07-17T20:55:28.969Z,2.73
2018-07-17T20:57:57.567Z,2.30
2018-07-17T21:00:26.494Z,2.47
2018-07-17T21:02:55.656Z,2.03
2018-07-17T21:05:24.131Z,2.37
2018-07-17T21:07:52.685Z,2.33
2018-07-17T21:10:21.524Z,2.60
2018-07-17T21:12:50.272Z,2.63
2018-07-17T21:15:18.861Z,1.93
2018-07-17T21:17:47.425Z,2.40
2018-07-17T21:20:16.082Z,2.57
2018-07-17T21:22:45.025Z,2.60
2018-07-17T21:25:13.635Z,2.60
2018-07-17T21:27:42.091Z,2.23
2018-07-17T21:30:10.804Z,2.70
2018-07-17T21:32:39.365Z,2.43
2018-07-17T21:35:08.470Z,3.00
2018-07-17T21:37:37.507Z,3.17
2018-07-17T21:40:06.639Z,2.50
2018-07-17T21:42:35.258Z,2.60
2018-07-17T21:45:03.830Z,2.90
2018-07-17T21:47:32.351Z,2.80
2018-07-17T21:50:00.930Z,2.67
2018-07-17T21:52:29.565Z,3.27
2018-07-17T21:54:58.028Z,2.97
2018-07-17T21:57:26.641Z,2.87
2018-07-17T21:59:55.224Z,2.93
2018-07-17T22:02:23.732Z,2.57
2018-07-17T22:04:53.070Z,2.77
2018-07-17T22:07:21.620Z,2.73
2018-07-17T22:09:50.142Z,3.07
2018-07-17T22:12:18.762Z,3.20
2018-07-17T22:14:47.309Z,3.37
2018-07-17T22:17:15.786Z,3.17
2018-07-17T22:19:44.411Z,3.10
2018-07-17T22:22:12.980Z,3.70
2018-07-17T22:24:41.541Z,3.50
2018-07-17T22:27:10.042Z,3.47
2018-07-17T22:29:38.548Z,4.00
2018-07-17T22:32:07.449Z,4.00
2018-07-17T22:34:35.996Z,4.23
2018-07-17T22:37:04.562Z,4.37
2018-07-17T22:39:33.186Z,3.80
2018-07-17T22:42:01.646Z,4.33
2018-07-17T22:44:30.123Z,4.03
2018-07-17T22:46:58.734Z,4.53
2018-07-17T22:49:27.225Z,4.80
2018-07-17T22:51:55.984Z,5.20
2018-07-17T22:54:25.012Z,4.63
2018-07-17T22:56:53.668Z,4.30
2018-07-17T22:59:22.146Z,4.97
2018-07-17T23:01:51.208Z,4.80
2018-07-17T23:04:19.757Z,4.47
2018-07-17T23:06:48.472Z,4.40
2018-07-17T23:09:17.078Z,4.60
2018-07-17T23:11:45.608Z,3.97
2018-07-17T23:14:14.262Z,4.57
2018-07-17T23:16:42.909Z,4.07
2018-07-17T23:19:11.577Z,4.30
2018-07-17T23:21:40.130Z,4.37
2018-07-17T23:24:08.662Z,4.03
2018-07-17T23:26:37.165Z,4.30
2018-07-17T23:29:05.742Z,4.30
2018-07-17T23:31:34.536Z,3.80
2018-07-17T23:34:03.040Z,4.30
2018-07-17T23:36:31.549Z,4.57
2018-07-17T23:39:00.072Z,4.30
2018-07-17T23:41:28.559Z,4.10
2018-07-17T23:43:57.148Z,3.80
2018-07-17T23:46:25.701Z,3.90
2018-07-17T23:48:54.187Z,4.73
2018-07-17T23:51:22.681Z,4.27
2018-07-17T23:53:51.140Z,4.00
2018-07-17T23:56:19.677Z,4.23
2018-07-17T23:58:48.221Z,4.13
